createdAt,value
2022-10-18T00:01:07.158Z,31.91
2022-10-18T00:03:34.922Z,31.96
2022-10-18T00:06:02.207Z,31.96
2022-10-18T00:08:29.596Z,31.90
2022-10-18T00:10:56.906Z,31.99
2022-10-18T00:13:24.567Z,32.18
2022-10-18T00:15:53.142Z,32.07
2022-10-18T00:18:20.585Z,31.77
2022-10-18T00:21:08.106Z,31.83
2022-10-18T00:23:35.774Z,31.85
2022-10-18T00:26:06.750Z,31.72
2022-10-18T00:28:34.719Z,31.76
2022-10-18T00:31:10.682Z,31.86
2022-10-18T00:33:38.093Z,31.91
2022-10-18T00:36:05.422Z,31.91
2022-10-18T00:38:32.690Z,32.02
2022-10-18T00:40:59.938Z,31.95
2022-10-18T00:43:27.249Z,32.06
2022-10-18T00:45:54.419Z,31.78
2022-10-18T00:48:21.863Z,31.78
2022-10-18T00:50:50.898Z,31.83
2022-10-18T00:53:20.358Z,31.94
2022-10-18T00:55:47.690Z,32.14
2022-10-18T00:58:17.263Z,31.99
2022-10-18T01:00:44.641Z,31.99
2022-10-18T01:03:12.088Z,32.01
2022-10-18T01:05:42.948Z,32.21
2022-10-18T01:08:32.629Z,32.04
2022-10-18T01:11:05.849Z,31.92
2022-10-18T01:13:48.236Z,31.98
2022-10-18T01:16:24.272Z,32.35
2022-10-18T01:18:51.592Z,32.04
2022-10-18T01:21:18.715Z,31.77
2022-10-18T01:23:49.078Z,32.03
2022-10-18T01:26:16.388Z,32.19
2022-10-18T01:28:54.762Z,32.10
2022-10-18T01:31:24.008Z,31.93
2022-10-18T01:33:58.143Z,31.92
2022-10-18T01:36:43.127Z,31.92
2022-10-18T01:39:12.866Z,32.15
2022-10-18T01:41:41.783Z,31.96
2022-10-18T01:44:11.504Z,32.03
2022-10-18T01:46:39.881Z,31.93
2022-10-18T01:49:07.322Z,32.12
2022-10-18T01:51:34.924Z,32.13
2022-10-18T01:54:02.678Z,32.26
2022-10-18T01:56:46.278Z,32.24
2022-10-18T01:59:16.457Z,31.91
2022-10-18T02:01:46.465Z,31.91
2022-10-18T02:04:28.611Z,32.12
2022-10-18T02:07:01.081Z,31.84
2022-10-18T02:09:50.505Z,32.04
2022-10-18T02:12:18.849Z,31.98
2022-10-18T02:14:47.364Z,32.07
2022-10-18T02:17:15.480Z,32.15
2022-10-18T02:19:50.870Z,32.19
2022-10-18T02:22:19.238Z,32.34
2022-10-18T02:24:48.299Z,32.25
2022-10-18T02:27:15.856Z,31.91
2022-10-18T02:29:43.838Z,31.82
2022-10-18T02:32:26.444Z,32.04
2022-10-18T02:35:04.768Z,32.13
2022-10-18T02:37:37.029Z,32.16
2022-10-18T02:40:05.592Z,32.07
2022-10-18T02:42:33.891Z,32.40
2022-10-18T02:45:01.616Z,31.97
2022-10-18T02:47:28.952Z,32.05
2022-10-18T02:49:56.225Z,32.24
2022-10-18T02:52:23.457Z,32.23
2022-10-18T02:54:50.779Z,32.14
2022-10-18T02:57:17.949Z,31.92
2022-10-18T02:59:45.211Z,31.89
2022-10-18T03:02:12.420Z,31.90
2022-10-18T03:04:39.729Z,32.15
2022-10-18T03:07:07.286Z,32.32
2022-10-18T03:09:34.548Z,32.03
2022-10-18T03:12:01.727Z,32.08
2022-10-18T03:14:29.108Z,32.14
2022-10-18T03:16:56.481Z,31.91
2022-10-18T03:19:23.739Z,31.89
2022-10-18T03:21:51.004Z,32.10
2022-10-18T03:24:18.192Z,32.08
2022-10-18T03:26:45.369Z,32.14
2022-10-18T03:29:12.769Z,32.00
2022-10-18T03:31:39.995Z,32.09
2022-10-18T03:34:07.156Z,32.22
2022-10-18T03:36:34.653Z,31.99
2022-10-18T03:39:01.945Z,32.00
2022-10-18T03:41:29.149Z,32.18
2022-10-18T03:43:56.369Z,32.03
2022-10-18T03:46:23.531Z,32.04
2022-10-18T03:48:50.785Z,31.95
2022-10-18T03:51:18.038Z,32.13
2022-10-18T03:53:45.212Z,31.95
2022-10-18T03:56:12.381Z,31.90
2022-10-18T03:58:39.708Z,31.81
2022-10-18T04:01:07.209Z,32.25
2022-10-18T04:03:34.476Z,31.92
2022-10-18T04:06:03.608Z,32.00
2022-10-18T04:08:30.993Z,31.75
2022-10-18T04:10:58.162Z,31.75
2022-10-18T04:13:25.814Z,32.02
2022-10-18T04:15:53.035Z,31.85
2022-10-18T04:18:20.327Z,31.87
2022-10-18T04:20:47.550Z,31.74
2022-10-18T04:23:14.844Z,31.81
2022-10-18T04:28:14.185Z,31.95
2022-10-18T04:30:41.371Z,31.86
2022-10-18T04:33:08.643Z,31.74
2022-10-18T04:35:36.400Z,31.84
2022-10-18T04:38:03.580Z,32.02
2022-10-18T04:40:30.775Z,32.03
2022-10-18T04:42:58.052Z,31.96
2022-10-18T04:45:26.277Z,31.89
2022-10-18T04:47:53.474Z,31.87
2022-10-18T04:50:20.698Z,31.91
2022-10-18T04:52:47.957Z,31.82
2022-10-18T04:55:15.208Z,31.93
2022-10-18T04:57:42.725Z,31.60
2022-10-18T05:00:10.071Z,31.76
2022-10-18T05:02:37.348Z,31.87
2022-10-18T05:05:04.835Z,31.78
2022-10-18T05:07:32.168Z,31.83
2022-10-18T05:10:00.434Z,31.89
2022-10-18T05:12:27.735Z,31.84
2022-10-18T05:14:56.783Z,32.17
2022-10-18T05:17:24.181Z,31.71
2022-10-18T05:19:51.629Z,31.76
2022-10-18T05:22:19.106Z,31.98
2022-10-18T05:24:46.297Z,32.09
2022-10-18T05:27:13.537Z,31.96
2022-10-18T05:29:40.886Z,32.05
2022-10-18T05:32:08.224Z,32.02
2022-10-18T05:34:35.485Z,32.09
2022-10-18T05:37:03.001Z,32.09
2022-10-18T05:39:30.208Z,31.91
2022-10-18T05:41:58.236Z,32.06
2022-10-18T05:44:25.489Z,31.97
2022-10-18T05:46:52.821Z,31.82
2022-10-18T05:49:20.049Z,31.86
2022-10-18T05:51:47.304Z,32.14
2022-10-18T05:54:14.717Z,32.16
2022-10-18T05:56:42.098Z,31.86
2022-10-18T05:59:12.422Z,31.80
2022-10-18T06:01:40.195Z,32.11
2022-10-18T06:04:07.770Z,31.84
2022-10-18T06:06:34.977Z,31.89
2022-10-18T06:09:03.470Z,32.00
2022-10-18T06:11:31.319Z,31.95
2022-10-18T06:13:58.598Z,31.90
2022-10-18T06:16:32.035Z,31.86
2022-10-18T06:19:00.207Z,31.92
2022-10-18T06:21:27.811Z,31.94
2022-10-18T06:23:56.637Z,31.56
2022-10-18T06:26:24.487Z,31.66
2022-10-18T06:28:51.832Z,31.78
2022-10-18T06:31:19.069Z,31.87
2022-10-18T06:33:46.292Z,31.68
2022-10-18T06:36:15.589Z,31.77
2022-10-18T06:38:42.969Z,31.83
2022-10-18T06:41:10.713Z,31.65
2022-10-18T06:43:37.908Z,31.90
2022-10-18T06:46:06.992Z,31.96
2022-10-18T06:48:35.484Z,31.72
2022-10-18T06:51:03.926Z,31.71
2022-10-18T06:53:32.214Z,31.81
2022-10-18T06:56:00.806Z,31.81
2022-10-18T06:58:28.499Z,31.70
2022-10-18T07:00:55.777Z,31.57
2022-10-18T07:03:23.406Z,31.81
2022-10-18T07:05:52.046Z,31.83
2022-10-18T07:08:19.320Z,31.61
2022-10-18T07:10:56.096Z,31.62
2022-10-18T07:13:38.860Z,31.70
2022-10-18T07:16:07.908Z,31.60
2022-10-18T07:18:36.451Z,31.84
2022-10-18T07:21:04.793Z,31.52
2022-10-18T07:23:32.939Z,31.65
2022-10-18T07:26:01.818Z,31.69
2022-10-18T07:28:29.675Z,31.62
2022-10-18T07:30:57.208Z,31.73
2022-10-18T07:33:26.002Z,31.71
2022-10-18T07:35:53.197Z,31.58
2022-10-18T07:38:20.516Z,31.51
2022-10-18T07:40:47.724Z,31.50
2022-10-18T07:43:14.932Z,31.56
2022-10-18T07:45:51.165Z,31.53
2022-10-18T07:48:18.473Z,31.71
2022-10-18T07:50:45.675Z,31.98
2022-10-18T07:53:13.140Z,31.89
2022-10-18T07:55:40.331Z,31.54
2022-10-18T07:58:07.554Z,31.88
2022-10-18T08:00:34.774Z,31.84
2022-10-18T08:03:02.124Z,31.71
2022-10-18T08:05:29.681Z,31.62
2022-10-18T08:07:57.343Z,31.64
2022-10-18T08:10:24.598Z,31.58
2022-10-18T08:12:51.857Z,31.69
2022-10-18T08:15:20.310Z,31.69
2022-10-18T08:17:47.602Z,31.89
2022-10-18T08:20:29.983Z,31.83
2022-10-18T08:23:00.485Z,31.59
2022-10-18T08:25:28.609Z,31.67
2022-10-18T08:27:55.816Z,31.70
2022-10-18T08:30:23.717Z,31.93
2022-10-18T08:32:50.945Z,31.60
2022-10-18T08:35:18.368Z,31.68
2022-10-18T08:37:45.900Z,31.88
2022-10-18T08:40:14.533Z,32.00
2022-10-18T08:43:00.169Z,31.97
2022-10-18T08:45:42.057Z,31.93
2022-10-18T08:48:31.112Z,31.88
2022-10-18T08:50:58.550Z,32.01
2022-10-18T08:53:46.502Z,32.30
2022-10-18T08:56:21.396Z,32.37
2022-10-18T08:58:48.704Z,32.23
2022-10-18T09:01:16.003Z,32.10
2022-10-18T09:04:19.379Z,32.24
2022-10-18T09:07:05.302Z,32.48
2022-10-18T09:09:53.884Z,32.17
2022-10-18T09:12:27.336Z,32.03
2022-10-18T09:14:55.808Z,32.20
2022-10-18T09:17:28.906Z,32.02
2022-10-18T09:20:11.304Z,32.14
2022-10-18T09:22:41.613Z,32.13
2022-10-18T09:25:19.765Z,32.14
2022-10-18T09:27:49.742Z,32.00
2022-10-18T09:30:37.797Z,32.43
2022-10-18T09:33:26.152Z,32.27
2022-10-18T09:35:57.981Z,32.20
2022-10-18T09:38:27.897Z,32.29
2022-10-18T09:40:58.030Z,32.30
2022-10-18T09:43:33.881Z,31.96
2022-10-18T09:46:03.293Z,32.14
2022-10-18T09:48:44.104Z,31.98
2022-10-18T09:51:22.116Z,31.97
2022-10-18T09:54:04.669Z,32.18
2022-10-18T09:56:42.132Z,32.05
2022-10-18T09:59:23.636Z,32.12
2022-10-18T10:01:50.997Z,31.93
2022-10-18T10:04:18.215Z,32.20
2022-10-18T10:06:52.512Z,32.01
2022-10-18T10:09:29.366Z,31.97
2022-10-18T10:11:57.443Z,32.21
2022-10-18T10:14:26.733Z,32.29
2022-10-18T10:17:05.815Z,32.30
2022-10-18T10:19:38.184Z,32.10
2022-10-18T10:22:07.026Z,32.20
2022-10-18T10:24:47.197Z,32.09
2022-10-18T10:27:16.916Z,32.31
2022-10-18T10:29:46.934Z,31.98
2022-10-18T10:32:15.382Z,31.87
2022-10-18T10:34:44.814Z,32.13
2022-10-18T10:37:41.612Z,32.15
2022-10-18T10:40:18.789Z,32.13
2022-10-18T10:43:00.011Z,31.86
2022-10-18T10:45:44.252Z,32.19
2022-10-18T10:48:16.046Z,32.00
2022-10-18T10:50:59.972Z,31.91
2022-10-18T10:53:32.651Z,31.88
2022-10-18T10:56:00.368Z,31.95
2022-10-18T10:58:29.470Z,32.37
2022-10-18T11:00:57.681Z,32.24
2022-10-18T11:03:29.363Z,32.13
2022-10-18T11:06:00.498Z,32.01
2022-10-18T11:08:31.590Z,32.04
2022-10-18T11:10:58.911Z,31.98
2022-10-18T11:13:35.974Z,31.92
2022-10-18T11:16:12.248Z,32.08
2022-10-18T11:18:41.056Z,31.94
2022-10-18T11:21:15.086Z,32.08
2022-10-18T11:23:43.705Z,31.74
2022-10-18T11:26:10.843Z,32.01
2022-10-18T11:28:57.009Z,32.07
2022-10-18T11:31:44.686Z,32.00
2022-10-18T11:34:20.952Z,31.87
2022-10-18T11:37:22.559Z,31.85
2022-10-18T11:39:56.492Z,32.12
2022-10-18T11:42:48.252Z,31.99
2022-10-18T11:45:41.505Z,32.03
2022-10-18T11:48:38.311Z,32.09
2022-10-18T11:51:25.563Z,31.95
2022-10-18T11:54:15.983Z,32.12
2022-10-18T11:56:55.526Z,31.85
2022-10-18T11:59:25.852Z,32.03
2022-10-18T12:01:58.927Z,31.92
2022-10-18T12:04:32.483Z,31.83
2022-10-18T12:06:59.920Z,31.89
2022-10-18T12:09:32.692Z,31.92
2022-10-18T12:12:21.628Z,31.88
2022-10-18T12:14:51.037Z,32.10
2022-10-18T12:17:43.905Z,31.71
2022-10-18T12:20:14.797Z,31.88
2022-10-18T12:22:45.819Z,32.05
2022-10-18T12:25:14.205Z,31.77
2022-10-18T12:27:46.490Z,32.15
2022-10-18T12:30:22.762Z,32.08
2022-10-18T12:33:03.576Z,31.97
2022-10-18T12:35:56.883Z,31.95
2022-10-18T12:38:26.881Z,31.88
2022-10-18T12:40:54.861Z,31.91
2022-10-18T12:43:26.220Z,32.00
2022-10-18T12:45:53.657Z,32.15
2022-10-18T12:48:29.832Z,31.98
2022-10-18T12:51:03.759Z,31.89
2022-10-18T12:53:32.526Z,32.13
2022-10-18T12:56:38.169Z,31.79
2022-10-18T12:59:17.303Z,31.95
2022-10-18T13:01:47.202Z,31.93
2022-10-18T13:04:32.713Z,31.68
2022-10-18T13:06:59.916Z,31.41
2022-10-18T13:09:27.839Z,31.53
2022-10-18T13:12:10.225Z,31.77
2022-10-18T13:14:54.482Z,31.99
2022-10-18T13:17:47.958Z,31.79
2022-10-18T13:20:26.036Z,31.67
2022-10-18T13:23:12.229Z,31.65
2022-10-18T13:25:45.419Z,31.72
2022-10-18T13:28:28.189Z,31.81
2022-10-18T13:31:01.397Z,31.70
2022-10-18T13:33:31.931Z,31.79
2022-10-18T13:36:25.588Z,31.87
2022-10-18T13:38:52.918Z,32.04
2022-10-18T13:41:21.576Z,31.77
2022-10-18T13:44:07.452Z,31.83
2022-10-18T13:46:34.789Z,31.90
2022-10-18T13:49:17.218Z,31.65
2022-10-18T13:51:48.875Z,31.62
2022-10-18T13:54:28.410Z,31.77
2022-10-18T13:56:58.550Z,31.70
2022-10-18T13:59:28.621Z,31.77
2022-10-18T14:02:04.417Z,31.63
2022-10-18T14:05:10.587Z,31.77
2022-10-18T14:07:43.503Z,31.73
2022-10-18T14:10:17.477Z,31.85
2022-10-18T14:12:47.662Z,31.78
2022-10-18T14:15:17.195Z,32.07
2022-10-18T14:17:46.575Z,32.01
2022-10-18T14:20:16.726Z,31.63
2022-10-18T14:22:48.133Z,31.71
2022-10-18T14:25:20.315Z,31.90
2022-10-18T14:27:50.927Z,31.75
2022-10-18T14:30:21.127Z,31.72
2022-10-18T14:32:56.937Z,32.00
2022-10-18T14:35:33.236Z,32.03
2022-10-18T14:38:02.114Z,32.07
2022-10-18T14:40:38.103Z,31.81
2022-10-18T14:43:10.793Z,31.70
2022-10-18T14:45:38.296Z,31.89
2022-10-18T14:48:06.345Z,31.93
2022-10-18T14:50:33.938Z,31.89
2022-10-18T14:53:05.384Z,31.81
2022-10-18T14:55:33.237Z,32.09
2022-10-18T14:58:00.454Z,32.31
2022-10-18T15:00:37.929Z,32.14
2022-10-18T15:03:07.319Z,32.09
2022-10-18T15:05:34.633Z,31.77
2022-10-18T15:08:02.091Z,31.99
2022-10-18T15:10:31.041Z,31.84
2022-10-18T15:13:10.931Z,31.76
2022-10-18T15:15:39.407Z,31.65
2022-10-18T15:18:07.118Z,31.89
2022-10-18T15:20:39.426Z,31.70
2022-10-18T15:23:27.040Z,31.93
2022-10-18T15:26:00.367Z,31.93
2022-10-18T15:28:29.681Z,32.15
2022-10-18T15:31:02.090Z,32.07
2022-10-18T15:33:34.612Z,32.04
2022-10-18T15:36:10.084Z,32.06
2022-10-18T15:38:37.951Z,32.04
2022-10-18T15:41:24.070Z,32.12
2022-10-18T15:43:51.394Z,31.96
2022-10-18T15:46:32.147Z,31.91
2022-10-18T15:49:19.411Z,32.35
2022-10-18T15:51:50.494Z,32.25
2022-10-18T15:54:18.701Z,32.18
2022-10-18T15:56:45.900Z,31.95
2022-10-18T15:59:23.772Z,32.20
2022-10-18T16:01:51.508Z,32.01
2022-10-18T16:04:29.685Z,32.26
2022-10-18T16:06:57.415Z,32.19
2022-10-18T16:09:25.593Z,31.98
2022-10-18T16:11:56.631Z,32.13
2022-10-18T16:14:25.511Z,32.27
2022-10-18T16:17:01.397Z,32.06
2022-10-18T16:19:29.058Z,32.40
2022-10-18T16:21:56.336Z,32.15
2022-10-18T16:24:23.665Z,31.85
2022-10-18T16:26:51.053Z,32.05
2022-10-18T16:29:21.807Z,32.20
2022-10-18T16:31:50.951Z,31.91
2022-10-18T16:34:18.348Z,32.15
2022-10-18T16:36:45.787Z,32.27
2022-10-18T16:39:15.473Z,32.23
2022-10-18T16:41:42.879Z,32.42
2022-10-18T16:44:10.072Z,32.32
2022-10-18T16:46:37.451Z,32.55
2022-10-18T16:49:05.065Z,32.23
2022-10-18T16:51:32.252Z,32.24
2022-10-18T16:53:59.478Z,32.21
2022-10-18T16:56:31.316Z,32.46
2022-10-18T16:58:59.137Z,32.20
2022-10-18T17:01:26.496Z,32.31
2022-10-18T17:03:54.333Z,32.19
2022-10-18T17:06:23.435Z,32.17
2022-10-18T17:08:51.342Z,32.31
2022-10-18T17:11:19.080Z,32.29
2022-10-18T17:13:46.746Z,32.38
2022-10-18T17:16:25.185Z,32.00
2022-10-18T17:18:52.622Z,32.17
2022-10-18T17:21:19.898Z,32.01
2022-10-18T17:23:47.267Z,32.02
2022-10-18T17:26:28.235Z,31.97
2022-10-18T17:28:58.451Z,32.06
2022-10-18T17:31:25.817Z,31.95
2022-10-18T17:33:56.063Z,32.08
2022-10-18T17:36:23.436Z,32.10
2022-10-18T17:38:51.381Z,32.06
2022-10-18T17:41:18.581Z,32.02
2022-10-18T17:43:45.743Z,32.13
2022-10-18T17:46:14.313Z,32.23
2022-10-18T17:48:41.792Z,32.12
2022-10-18T17:51:13.211Z,31.98
2022-10-18T17:53:40.582Z,32.03
2022-10-18T17:56:07.972Z,31.94
2022-10-18T17:58:35.329Z,32.33
2022-10-18T18:01:16.341Z,32.46
2022-10-18T18:03:43.824Z,31.72
2022-10-18T18:06:12.204Z,31.84
2022-10-18T18:08:39.655Z,31.97
2022-10-18T18:11:07.159Z,31.93
2022-10-18T18:13:34.463Z,31.75
2022-10-18T18:16:11.553Z,31.72
2022-10-18T18:18:38.891Z,31.77
2022-10-18T18:21:06.209Z,31.74
2022-10-18T18:23:33.429Z,32.20
2022-10-18T18:26:03.066Z,31.88
2022-10-18T18:28:30.451Z,31.81
2022-10-18T18:31:02.165Z,31.91
2022-10-18T18:33:29.426Z,31.89
2022-10-18T18:35:57.471Z,31.90
2022-10-18T18:38:25.543Z,31.88
2022-10-18T18:41:11.254Z,32.00
2022-10-18T18:43:39.704Z,32.10
2022-10-18T18:46:07.292Z,31.88
2022-10-18T18:48:35.539Z,31.82
2022-10-18T18:51:03.686Z,31.92
2022-10-18T18:53:31.095Z,31.98
2022-10-18T18:56:05.632Z,31.76
2022-10-18T18:58:34.825Z,32.10
2022-10-18T19:01:06.748Z,31.92
2022-10-18T19:03:34.297Z,32.06
2022-10-18T19:06:08.734Z,32.22
2022-10-18T19:08:37.162Z,31.92
2022-10-18T19:11:08.110Z,32.05
2022-10-18T19:13:36.808Z,31.96
2022-10-18T19:16:16.059Z,32.05
2022-10-18T19:18:43.363Z,31.73
2022-10-18T19:21:10.575Z,31.89
2022-10-18T19:23:37.835Z,31.86
2022-10-18T19:26:11.846Z,32.12
2022-10-18T19:28:39.273Z,31.91
2022-10-18T19:31:07.661Z,31.89
2022-10-18T19:33:47.951Z,31.65
2022-10-18T19:36:22.584Z,31.71
2022-10-18T19:38:49.977Z,31.77
2022-10-18T19:41:17.328Z,31.63
2022-10-18T19:43:44.598Z,32.03
2022-10-18T19:46:11.853Z,31.73
2022-10-18T19:48:39.027Z,31.63
2022-10-18T19:51:09.353Z,31.62
2022-10-18T19:53:37.118Z,31.79
2022-10-18T19:56:05.273Z,31.50
2022-10-18T19:58:33.123Z,31.95
2022-10-18T20:01:00.535Z,31.73
2022-10-18T20:03:31.479Z,32.01
2022-10-18T20:05:59.440Z,31.70
2022-10-18T20:08:27.521Z,31.71
2022-10-18T20:10:54.953Z,31.91
2022-10-18T20:13:22.463Z,31.73
2022-10-18T20:15:51.049Z,31.70
2022-10-18T20:18:19.437Z,31.65
2022-10-18T20:20:48.235Z,31.77
2022-10-18T20:23:18.860Z,31.66
2022-10-18T20:25:59.059Z,31.59
2022-10-18T20:28:27.103Z,31.74
2022-10-18T20:31:07.741Z,31.97
2022-10-18T20:33:35.633Z,31.76
2022-10-18T20:36:07.202Z,31.40
2022-10-18T20:38:35.784Z,31.54
2022-10-18T20:41:07.570Z,31.60
2022-10-18T20:43:35.372Z,31.56
2022-10-18T20:46:03.768Z,31.71
2022-10-18T20:48:31.732Z,31.66
2022-10-18T20:51:09.263Z,31.81
2022-10-18T20:53:37.324Z,31.82
2022-10-18T20:56:05.476Z,31.35
2022-10-18T20:58:33.506Z,31.59
2022-10-18T21:01:33.149Z,31.60
2022-10-18T21:04:01.720Z,31.81
2022-10-18T21:06:30.211Z,31.41
2022-10-18T21:08:58.811Z,31.13
2022-10-18T21:11:27.548Z,31.21
2022-10-18T21:13:56.184Z,31.31
2022-10-18T21:16:23.374Z,31.06
2022-10-18T21:18:51.047Z,31.37
2022-10-18T21:21:25.759Z,31.58
2022-10-18T21:23:53.673Z,31.36
2022-10-18T21:26:22.282Z,31.42
2022-10-18T21:28:53.478Z,31.16
2022-10-18T21:31:22.437Z,31.24
2022-10-18T21:33:53.047Z,31.27
2022-10-18T21:36:20.388Z,31.35
2022-10-18T21:38:47.554Z,31.10
2022-10-18T21:41:15.783Z,31.49
2022-10-18T21:43:44.070Z,31.26
2022-10-18T21:46:11.796Z,31.22
2022-10-18T21:48:42.084Z,31.22
2022-10-18T21:51:09.615Z,31.46
2022-10-18T21:53:36.894Z,31.47
2022-10-18T21:56:05.315Z,31.25
2022-10-18T21:58:32.821Z,31.28
2022-10-18T22:01:00.209Z,31.42
2022-10-18T22:03:27.515Z,31.33
2022-10-18T22:06:01.163Z,31.42
2022-10-18T22:08:29.434Z,31.45
2022-10-18T22:10:57.429Z,31.39
2022-10-18T22:13:24.725Z,31.31
2022-10-18T22:15:51.970Z,31.70
2022-10-18T22:18:19.299Z,31.31
2022-10-18T22:20:56.349Z,31.70
2022-10-18T22:23:23.686Z,31.51
2022-10-18T22:25:50.982Z,31.28
2022-10-18T22:28:18.242Z,31.34
2022-10-18T22:30:45.441Z,31.42
2022-10-18T22:33:12.803Z,31.19
2022-10-18T22:35:40.020Z,31.42
2022-10-18T22:38:07.215Z,31.37
2022-10-18T22:40:34.372Z,31.41
2022-10-18T22:43:01.801Z,30.95
2022-10-18T22:45:28.972Z,30.70
2022-10-18T22:47:56.173Z,31.40
2022-10-18T22:50:23.405Z,31.00
2022-10-18T22:52:53.887Z,30.90
2022-10-18T22:55:21.973Z,31.00
2022-10-18T22:57:49.336Z,30.84
2022-10-18T23:00:16.785Z,31.25
2022-10-18T23:02:44.015Z,31.12
2022-10-18T23:05:11.253Z,30.98
2022-10-18T23:07:38.420Z,30.64
2022-10-18T23:10:05.832Z,30.49
2022-10-18T23:12:33.293Z,31.04
2022-10-18T23:15:00.699Z,31.06
2022-10-18T23:17:27.847Z,31.23
2022-10-18T23:19:55.142Z,31.17
2022-10-18T23:22:22.329Z,30.99
2022-10-18T23:24:49.613Z,31.02
2022-10-18T23:27:17.038Z,30.97
2022-10-18T23:29:45.472Z,30.78
2022-10-18T23:32:12.657Z,31.04
2022-10-18T23:34:39.905Z,30.85
2022-10-18T23:37:07.193Z,30.99
2022-10-18T23:39:34.515Z,31.13
2022-10-18T23:42:02.766Z,31.05
2022-10-18T23:44:30.071Z,31.26
2022-10-18T23:46:57.231Z,30.99
2022-10-18T23:49:24.592Z,31.04
2022-10-18T23:51:51.842Z,31.21
2022-10-18T23:54:19.128Z,31.42
2022-10-18T23:56:46.339Z,31.04
2022-10-18T23:59:13.623Z,31.08
